sensor_id;sensor_type;location;lat;lon;timestamp;P1;durP1;ratioP1;P2;durP2;ratioP2
12585;SDS011;6358;50.760;0.282;2023-05-23T00:01:37;2.50;;;2.30;;
12585;SDS011;6358;50.760;0.282;2023-05-23T00:04:03;2.73;;;2.53;;
12585;SDS011;6358;50.760;0.282;2023-05-23T00:06:30;2.70;;;2.50;;
12585;SDS011;6358;50.760;0.282;2023-05-23T00:08:56;3.40;;;2.40;;
12585;SDS011;6358;50.760;0.282;2023-05-23T00:11:23;2.80;;;2.60;;
12585;SDS011;6358;50.760;0.282;2023-05-23T00:13:54;2.57;;;2.37;;
12585;SDS011;6358;50.760;0.282;2023-05-23T00:16:25;2.73;;;2.53;;
12585;SDS011;6358;50.760;0.282;2023-05-23T00:18:51;2.77;;;2.20;;
12585;SDS011;6358;50.760;0.282;2023-05-23T00:21:17;3.73;;;2.70;;
12585;SDS011;6358;50.760;0.282;2023-05-23T00:23:44;2.80;;;2.60;;
12585;SDS011;6358;50.760;0.282;2023-05-23T00:26:10;2.90;;;2.60;;
12585;SDS011;6358;50.760;0.282;2023-05-23T00:28:36;2.60;;;2.40;;
12585;SDS011;6358;50.760;0.282;2023-05-23T00:31:02;2.90;;;2.70;;
12585;SDS011;6358;50.760;0.282;2023-05-23T00:33:29;3.20;;;2.90;;
12585;SDS011;6358;50.760;0.282;2023-05-23T00:35:57;2.80;;;2.60;;
12585;SDS011;6358;50.760;0.282;2023-05-23T00:38:24;3.00;;;2.50;;
12585;SDS011;6358;50.760;0.282;2023-05-23T00:40:50;3.27;;;2.70;;
12585;SDS011;6358;50.760;0.282;2023-05-23T00:43:17;2.77;;;2.53;;
12585;SDS011;6358;50.760;0.282;2023-05-23T00:45:44;3.07;;;2.43;;
12585;SDS011;6358;50.760;0.282;2023-05-23T00:48:10;2.83;;;2.53;;
12585;SDS011;6358;50.760;0.282;2023-05-23T00:50:37;2.77;;;2.57;;
12585;SDS011;6358;50.760;0.282;2023-05-23T00:53:03;2.83;;;2.63;;
12585;SDS011;6358;50.760;0.282;2023-05-23T00:55:29;3.00;;;2.63;;
12585;SDS011;6358;50.760;0.282;2023-05-23T00:57:55;3.50;;;2.97;;
12585;SDS011;6358;50.760;0.282;2023-05-23T01:00:22;3.10;;;2.80;;
12585;SDS011;6358;50.760;0.282;2023-05-23T01:02:48;3.03;;;2.60;;
12585;SDS011;6358;50.760;0.282;2023-05-23T01:05:15;3.57;;;2.83;;
12585;SDS011;6358;50.760;0.282;2023-05-23T01:07:45;3.20;;;2.63;;
12585;SDS011;6358;50.760;0.282;2023-05-23T01:10:11;3.73;;;2.90;;
12585;SDS011;6358;50.760;0.282;2023-05-23T01:15:20;3.50;;;3.00;;
12585;SDS011;6358;50.760;0.282;2023-05-23T01:20:21;3.30;;;3.00;;
12585;SDS011;6358;50.760;0.282;2023-05-23T01:25:26;2.67;;;2.47;;
12585;SDS011;6358;50.760;0.282;2023-05-23T01:27:54;2.90;;;2.70;;
12585;SDS011;6358;50.760;0.282;2023-05-23T01:30:21;3.10;;;2.80;;
12585;SDS011;6358;50.760;0.282;2023-05-23T01:32:49;2.87;;;2.67;;
12585;SDS011;6358;50.760;0.282;2023-05-23T01:35:17;3.00;;;2.70;;
12585;SDS011;6358;50.760;0.282;2023-05-23T01:37:45;3.20;;;2.90;;
12585;SDS011;6358;50.760;0.282;2023-05-23T01:40:11;3.63;;;3.20;;
12585;SDS011;6358;50.760;0.282;2023-05-23T01:42:37;3.30;;;3.00;;
12585;SDS011;6358;50.760;0.282;2023-05-23T01:45:03;3.90;;;3.50;;
12585;SDS011;6358;50.760;0.282;2023-05-23T01:47:30;3.40;;;2.87;;
12585;SDS011;6358;50.760;0.282;2023-05-23T01:49:56;4.07;;;3.07;;
12585;SDS011;6358;50.760;0.282;2023-05-23T01:52:23;3.70;;;2.87;;
12585;SDS011;6358;50.760;0.282;2023-05-23T01:54:50;3.10;;;2.90;;
12585;SDS011;6358;50.760;0.282;2023-05-23T01:57:16;3.07;;;2.80;;
12585;SDS011;6358;50.760;0.282;2023-05-23T01:59:42;3.40;;;3.10;;
12585;SDS011;6358;50.760;0.282;2023-05-23T02:02:09;3.53;;;3.23;;
12585;SDS011;6358;50.760;0.282;2023-05-23T02:04:35;4.30;;;3.37;;
12585;SDS011;6358;50.760;0.282;2023-05-23T02:07:01;3.63;;;2.87;;
12585;SDS011;6358;50.760;0.282;2023-05-23T02:09:27;3.40;;;3.10;;
12585;SDS011;6358;50.760;0.282;2023-05-23T02:11:53;4.23;;;3.10;;
12585;SDS011;6358;50.760;0.282;2023-05-23T02:14:20;4.20;;;3.30;;
12585;SDS011;6358;50.760;0.282;2023-05-23T02:16:46;5.50;;;3.17;;
12585;SDS011;6358;50.760;0.282;2023-05-23T02:19:13;3.00;;;2.80;;
12585;SDS011;6358;50.760;0.282;2023-05-23T02:21:40;3.00;;;2.80;;
12585;SDS011;6358;50.760;0.282;2023-05-23T02:24:06;3.40;;;3.10;;
12585;SDS011;6358;50.760;0.282;2023-05-23T02:26:32;3.90;;;3.50;;
12585;SDS011;6358;50.760;0.282;2023-05-23T02:28:58;3.63;;;3.00;;
12585;SDS011;6358;50.760;0.282;2023-05-23T02:31:25;3.40;;;3.10;;
12585;SDS011;6358;50.760;0.282;2023-05-23T02:33:51;3.40;;;3.07;;
12585;SDS011;6358;50.760;0.282;2023-05-23T02:36:18;3.73;;;2.90;;
12585;SDS011;6358;50.760;0.282;2023-05-23T02:38:44;3.33;;;3.03;;
12585;SDS011;6358;50.760;0.282;2023-05-23T02:41:10;3.50;;;3.20;;
12585;SDS011;6358;50.760;0.282;2023-05-23T02:43:36;2.90;;;2.70;;
12585;SDS011;6358;50.760;0.282;2023-05-23T02:46:03;3.77;;;3.00;;
12585;SDS011;6358;50.760;0.282;2023-05-23T02:48:29;3.53;;;3.23;;
12585;SDS011;6358;50.760;0.282;2023-05-23T02:50:55;3.30;;;3.00;;
12585;SDS011;6358;50.760;0.282;2023-05-23T02:53:21;5.07;;;3.07;;
12585;SDS011;6358;50.760;0.282;2023-05-23T02:55:47;3.47;;;3.17;;
12585;SDS011;6358;50.760;0.282;2023-05-23T02:58:13;3.77;;;3.43;;
12585;SDS011;6358;50.760;0.282;2023-05-23T03:00:40;3.00;;;2.80;;
12585;SDS011;6358;50.760;0.282;2023-05-23T03:03:08;3.30;;;3.00;;
12585;SDS011;6358;50.760;0.282;2023-05-23T03:05:34;3.33;;;2.90;;
12585;SDS011;6358;50.760;0.282;2023-05-23T03:08:00;3.00;;;2.80;;
12585;SDS011;6358;50.760;0.282;2023-05-23T03:10:26;3.87;;;3.50;;
12585;SDS011;6358;50.760;0.282;2023-05-23T03:12:52;3.60;;;3.30;;
12585;SDS011;6358;50.760;0.282;2023-05-23T03:15:18;3.40;;;3.10;;
12585;SDS011;6358;50.760;0.282;2023-05-23T03:17:44;3.60;;;3.10;;
12585;SDS011;6358;50.760;0.282;2023-05-23T03:20:10;3.60;;;3.30;;
12585;SDS011;6358;50.760;0.282;2023-05-23T03:22:37;3.77;;;3.47;;
12585;SDS011;6358;50.760;0.282;2023-05-23T03:25:03;3.40;;;3.03;;
12585;SDS011;6358;50.760;0.282;2023-05-23T03:27:29;3.40;;;3.00;;
12585;SDS011;6358;50.760;0.282;2023-05-23T03:29:55;3.20;;;2.90;;
12585;SDS011;6358;50.760;0.282;2023-05-23T03:32:21;3.17;;;2.87;;
12585;SDS011;6358;50.760;0.282;2023-05-23T03:34:47;3.73;;;3.43;;
12585;SDS011;6358;50.760;0.282;2023-05-23T03:37:14;3.40;;;3.10;;
12585;SDS011;6358;50.760;0.282;2023-05-23T03:39:40;3.30;;;3.00;;
12585;SDS011;6358;50.760;0.282;2023-05-23T03:42:06;3.80;;;3.20;;
12585;SDS011;6358;50.760;0.282;2023-05-23T03:44:32;4.47;;;3.67;;
12585;SDS011;6358;50.760;0.282;2023-05-23T03:46:58;3.37;;;3.07;;
12585;SDS011;6358;50.760;0.282;2023-05-23T03:49:24;3.23;;;2.93;;
12585;SDS011;6358;50.760;0.282;2023-05-23T03:51:50;3.80;;;3.40;;
12585;SDS011;6358;50.760;0.282;2023-05-23T03:54:16;3.63;;;3.20;;
12585;SDS011;6358;50.760;0.282;2023-05-23T03:56:43;4.10;;;3.40;;
12585;SDS011;6358;50.760;0.282;2023-05-23T03:59:09;3.50;;;3.20;;
12585;SDS011;6358;50.760;0.282;2023-05-23T04:01:35;4.13;;;3.60;;
12585;SDS011;6358;50.760;0.282;2023-05-23T04:04:01;3.30;;;3.00;;
12585;SDS011;6358;50.760;0.282;2023-05-23T04:06:28;4.40;;;3.10;;
12585;SDS011;6358;50.760;0.282;2023-05-23T04:08:55;3.50;;;3.17;;
12585;SDS011;6358;50.760;0.282;2023-05-23T04:11:22;3.70;;;3.23;;
12585;SDS011;6358;50.760;0.282;2023-05-23T04:13:48;4.37;;;3.30;;
12585;SDS011;6358;50.760;0.282;2023-05-23T04:16:16;3.40;;;3.10;;
12585;SDS011;6358;50.760;0.282;2023-05-23T04:18:42;3.60;;;3.30;;
12585;SDS011;6358;50.760;0.282;2023-05-23T04:21:11;3.27;;;2.97;;
12585;SDS011;6358;50.760;0.282;2023-05-23T04:23:37;2.90;;;2.70;;
12585;SDS011;6358;50.760;0.282;2023-05-23T04:26:03;4.30;;;3.20;;
12585;SDS011;6358;50.760;0.282;2023-05-23T04:28:30;3.93;;;3.50;;
12585;SDS011;6358;50.760;0.282;2023-05-23T04:30:56;4.27;;;3.17;;
12585;SDS011;6358;50.760;0.282;2023-05-23T04:33:22;3.37;;;3.07;;
12585;SDS011;6358;50.760;0.282;2023-05-23T04:35:48;3.10;;;2.80;;
12585;SDS011;6358;50.760;0.282;2023-05-23T04:38:15;4.13;;;3.27;;
12585;SDS011;6358;50.760;0.282;2023-05-23T04:40:41;3.67;;;3.27;;
12585;SDS011;6358;50.760;0.282;2023-05-23T04:43:07;3.63;;;3.10;;
12585;SDS011;6358;50.760;0.282;2023-05-23T04:45:34;3.53;;;3.23;;
12585;SDS011;6358;50.760;0.282;2023-05-23T04:48:05;3.50;;;3.20;;
12585;SDS011;6358;50.760;0.282;2023-05-23T04:50:32;4.23;;;3.43;;
12585;SDS011;6358;50.760;0.282;2023-05-23T04:52:59;3.83;;;3.43;;
12585;SDS011;6358;50.760;0.282;2023-05-23T04:55:25;3.90;;;3.30;;
12585;SDS011;6358;50.760;0.282;2023-05-23T04:57:51;4.13;;;3.13;;
12585;SDS011;6358;50.760;0.282;2023-05-23T05:00:18;4.57;;;3.43;;
12585;SDS011;6358;50.760;0.282;2023-05-23T05:02:44;3.90;;;3.50;;
12585;SDS011;6358;50.760;0.282;2023-05-23T05:05:10;4.27;;;3.63;;
12585;SDS011;6358;50.760;0.282;2023-05-23T05:07:36;4.33;;;3.27;;
12585;SDS011;6358;50.760;0.282;2023-05-23T05:10:03;3.90;;;3.37;;
12585;SDS011;6358;50.760;0.282;2023-05-23T05:12:29;4.47;;;3.60;;
12585;SDS011;6358;50.760;0.282;2023-05-23T05:14:55;3.33;;;3.03;;
12585;SDS011;6358;50.760;0.282;2023-05-23T05:17:21;3.83;;;3.00;;
12585;SDS011;6358;50.760;0.282;2023-05-23T05:19:48;3.80;;;3.50;;
12585;SDS011;6358;50.760;0.282;2023-05-23T05:22:15;3.37;;;3.07;;
12585;SDS011;6358;50.760;0.282;2023-05-23T05:24:41;3.30;;;3.00;;
12585;SDS011;6358;50.760;0.282;2023-05-23T05:27:07;3.27;;;2.97;;
12585;SDS011;6358;50.760;0.282;2023-05-23T05:29:35;3.47;;;2.90;;
12585;SDS011;6358;50.760;0.282;2023-05-23T05:32:02;4.50;;;2.80;;
12585;SDS011;6358;50.760;0.282;2023-05-23T05:34:28;3.60;;;3.27;;
12585;SDS011;6358;50.760;0.282;2023-05-23T05:36:54;3.30;;;3.00;;
12585;SDS011;6358;50.760;0.282;2023-05-23T05:39:22;3.23;;;3.00;;
12585;SDS011;6358;50.760;0.282;2023-05-23T05:41:50;3.83;;;3.50;;
12585;SDS011;6358;50.760;0.282;2023-05-23T05:44:16;3.13;;;2.83;;
12585;SDS011;6358;50.760;0.282;2023-05-23T05:46:42;3.40;;;3.07;;
12585;SDS011;6358;50.760;0.282;2023-05-23T05:49:08;3.77;;;3.20;;
12585;SDS011;6358;50.760;0.282;2023-05-23T05:51:34;3.77;;;3.10;;
12585;SDS011;6358;50.760;0.282;2023-05-23T05:54:00;3.53;;;2.80;;
12585;SDS011;6358;50.760;0.282;2023-05-23T05:56:26;3.60;;;3.30;;
12585;SDS011;6358;50.760;0.282;2023-05-23T05:58:52;3.43;;;3.10;;
12585;SDS011;6358;50.760;0.282;2023-05-23T06:01:18;3.10;;;2.80;;
12585;SDS011;6358;50.760;0.282;2023-05-23T06:03:45;3.90;;;3.00;;
12585;SDS011;6358;50.760;0.282;2023-05-23T06:06:11;3.40;;;3.10;;
12585;SDS011;6358;50.760;0.282;2023-05-23T06:08:37;3.87;;;3.10;;
12585;SDS011;6358;50.760;0.282;2023-05-23T06:11:03;3.37;;;3.00;;
12585;SDS011;6358;50.760;0.282;2023-05-23T06:13:29;3.27;;;2.83;;
12585;SDS011;6358;50.760;0.282;2023-05-23T06:15:55;3.53;;;3.10;;
12585;SDS011;6358;50.760;0.282;2023-05-23T06:18:22;3.50;;;3.20;;
12585;SDS011;6358;50.760;0.282;2023-05-23T06:20:48;4.47;;;3.30;;
12585;SDS011;6358;50.760;0.282;2023-05-23T06:23:14;3.97;;;3.10;;
12585;SDS011;6358;50.760;0.282;2023-05-23T06:25:40;3.30;;;3.00;;
12585;SDS011;6358;50.760;0.282;2023-05-23T06:28:06;3.63;;;2.97;;
12585;SDS011;6358;50.760;0.282;2023-05-23T06:30:33;3.57;;;3.27;;
12585;SDS011;6358;50.760;0.282;2023-05-23T06:33:00;3.60;;;3.10;;
12585;SDS011;6358;50.760;0.282;2023-05-23T06:35:26;3.70;;;2.70;;
12585;SDS011;6358;50.760;0.282;2023-05-23T06:37:52;2.93;;;2.73;;
12585;SDS011;6358;50.760;0.282;2023-05-23T06:40:18;3.50;;;3.10;;
12585;SDS011;6358;50.760;0.282;2023-05-23T06:42:45;3.67;;;3.00;;
12585;SDS011;6358;50.760;0.282;2023-05-23T06:45:11;3.10;;;2.80;;
12585;SDS011;6358;50.760;0.282;2023-05-23T06:47:37;3.33;;;3.03;;
12585;SDS011;6358;50.760;0.282;2023-05-23T06:50:07;4.03;;;2.67;;
12585;SDS011;6358;50.760;0.282;2023-05-23T06:52:33;4.30;;;3.10;;
12585;SDS011;6358;50.760;0.282;2023-05-23T06:54:59;4.10;;;3.13;;
12585;SDS011;6358;50.760;0.282;2023-05-23T06:57:26;3.20;;;2.90;;
12585;SDS011;6358;50.760;0.282;2023-05-23T06:59:52;3.37;;;2.97;;
12585;SDS011;6358;50.760;0.282;2023-05-23T07:02:18;4.17;;;3.27;;
12585;SDS011;6358;50.760;0.282;2023-05-23T07:04:44;3.07;;;2.77;;
12585;SDS011;6358;50.760;0.282;2023-05-23T07:07:10;3.53;;;2.80;;
12585;SDS011;6358;50.760;0.282;2023-05-23T07:09:36;3.30;;;2.80;;
12585;SDS011;6358;50.760;0.282;2023-05-23T07:12:03;3.47;;;2.60;;
12585;SDS011;6358;50.760;0.282;2023-05-23T07:14:30;3.00;;;2.60;;
12585;SDS011;6358;50.760;0.282;2023-05-23T07:16:56;6.60;;;2.70;;
12585;SDS011;6358;50.760;0.282;2023-05-23T07:19:22;3.03;;;2.73;;
12585;SDS011;6358;50.760;0.282;2023-05-23T07:21:48;3.73;;;2.90;;
12585;SDS011;6358;50.760;0.282;2023-05-23T07:24:14;2.80;;;2.50;;
12585;SDS011;6358;50.760;0.282;2023-05-23T07:26:40;2.70;;;2.50;;
12585;SDS011;6358;50.760;0.282;2023-05-23T07:29:06;2.83;;;2.40;;
12585;SDS011;6358;50.760;0.282;2023-05-23T07:31:33;2.77;;;2.57;;
12585;SDS011;6358;50.760;0.282;2023-05-23T07:33:59;2.77;;;2.57;;
12585;SDS011;6358;50.760;0.282;2023-05-23T07:36:25;3.73;;;2.57;;
12585;SDS011;6358;50.760;0.282;2023-05-23T07:38:51;3.53;;;2.47;;
12585;SDS011;6358;50.760;0.282;2023-05-23T07:41:17;2.70;;;2.50;;
12585;SDS011;6358;50.760;0.282;2023-05-23T07:43:43;3.93;;;2.70;;
12585;SDS011;6358;50.760;0.282;2023-05-23T07:46:09;2.90;;;2.60;;
12585;SDS011;6358;50.760;0.282;2023-05-23T07:48:35;3.20;;;2.90;;
12585;SDS011;6358;50.760;0.282;2023-05-23T07:51:02;2.63;;;2.30;;
12585;SDS011;6358;50.760;0.282;2023-05-23T07:53:28;2.70;;;2.37;;
12585;SDS011;6358;50.760;0.282;2023-05-23T07:55:54;3.47;;;2.27;;
12585;SDS011;6358;50.760;0.282;2023-05-23T07:58:20;2.77;;;2.40;;
12585;SDS011;6358;50.760;0.282;2023-05-23T08:00:47;2.63;;;2.40;;
12585;SDS011;6358;50.760;0.282;2023-05-23T08:03:14;3.00;;;2.40;;
12585;SDS011;6358;50.760;0.282;2023-05-23T08:05:41;2.77;;;2.40;;
12585;SDS011;6358;50.760;0.282;2023-05-23T08:08:07;2.97;;;2.27;;
12585;SDS011;6358;50.760;0.282;2023-05-23T08:10:33;2.93;;;2.40;;
12585;SDS011;6358;50.760;0.282;2023-05-23T08:12:59;2.87;;;2.57;;
12585;SDS011;6358;50.760;0.282;2023-05-23T08:15:30;2.87;;;2.10;;
12585;SDS011;6358;50.760;0.282;2023-05-23T08:17:56;2.77;;;2.40;;
12585;SDS011;6358;50.760;0.282;2023-05-23T08:20:24;2.30;;;2.10;;
12585;SDS011;6358;50.760;0.282;2023-05-23T08:22:56;2.63;;;2.17;;
12585;SDS011;6358;50.760;0.282;2023-05-23T08:25:22;3.27;;;2.40;;
12585;SDS011;6358;50.760;0.282;2023-05-23T08:27:49;2.37;;;2.17;;
12585;SDS011;6358;50.760;0.282;2023-05-23T08:30:15;3.30;;;2.70;;
12585;SDS011;6358;50.760;0.282;2023-05-23T08:32:41;2.77;;;2.23;;
12585;SDS011;6358;50.760;0.282;2023-05-23T08:35:08;3.00;;;2.00;;
12585;SDS011;6358;50.760;0.282;2023-05-23T08:37:34;2.27;;;2.07;;
12585;SDS011;6358;50.760;0.282;2023-05-23T08:40:00;2.33;;;2.13;;
12585;SDS011;6358;50.760;0.282;2023-05-23T08:42:26;2.53;;;2.20;;
12585;SDS011;6358;50.760;0.282;2023-05-23T08:44:52;2.43;;;2.20;;
12585;SDS011;6358;50.760;0.282;2023-05-23T08:47:18;3.03;;;2.13;;
12585;SDS011;6358;50.760;0.282;2023-05-23T08:49:45;3.33;;;2.33;;
12585;SDS011;6358;50.760;0.282;2023-05-23T08:52:12;2.37;;;2.17;;
12585;SDS011;6358;50.760;0.282;2023-05-23T08:54:39;2.50;;;2.10;;
12585;SDS011;6358;50.760;0.282;2023-05-23T08:57:06;2.30;;;2.10;;
12585;SDS011;6358;50.760;0.282;2023-05-23T08:59:32;2.37;;;2.17;;
12585;SDS011;6358;50.760;0.282;2023-05-23T09:01:58;2.80;;;2.10;;
12585;SDS011;6358;50.760;0.282;2023-05-23T09:04:25;2.20;;;2.00;;
12585;SDS011;6358;50.760;0.282;2023-05-23T09:06:54;2.23;;;1.90;;
12585;SDS011;6358;50.760;0.282;2023-05-23T09:09:20;2.37;;;1.97;;
12585;SDS011;6358;50.760;0.282;2023-05-23T09:11:46;3.03;;;2.17;;
12585;SDS011;6358;50.760;0.282;2023-05-23T09:14:12;3.83;;;2.10;;
12585;SDS011;6358;50.760;0.282;2023-05-23T09:16:39;2.63;;;1.80;;
12585;SDS011;6358;50.760;0.282;2023-05-23T09:19:09;4.87;;;2.23;;
12585;SDS011;6358;50.760;0.282;2023-05-23T09:21:35;3.50;;;1.83;;
12585;SDS011;6358;50.760;0.282;2023-05-23T09:24:01;2.40;;;1.97;;
12585;SDS011;6358;50.760;0.282;2023-05-23T09:26:28;2.03;;;1.87;;
12585;SDS011;6358;50.760;0.282;2023-05-23T09:28:57;2.13;;;1.90;;
12585;SDS011;6358;50.760;0.282;2023-05-23T09:31:27;2.90;;;1.80;;
12585;SDS011;6358;50.760;0.282;2023-05-23T09:33:53;1.90;;;1.80;;
12585;SDS011;6358;50.760;0.282;2023-05-23T09:36:19;3.27;;;1.90;;
12585;SDS011;6358;50.760;0.282;2023-05-23T09:38:46;2.67;;;2.00;;
12585;SDS011;6358;50.760;0.282;2023-05-23T09:41:18;2.17;;;1.77;;
12585;SDS011;6358;50.760;0.282;2023-05-23T09:43:51;2.40;;;2.10;;
12585;SDS011;6358;50.760;0.282;2023-05-23T09:46:18;3.20;;;2.00;;
12585;SDS011;6358;50.760;0.282;2023-05-23T09:48:48;1.90;;;1.80;;
12585;SDS011;6358;50.760;0.282;2023-05-23T09:51:17;3.07;;;1.87;;
12585;SDS011;6358;50.760;0.282;2023-05-23T09:53:45;2.27;;;1.77;;
12585;SDS011;6358;50.760;0.282;2023-05-23T09:56:11;3.60;;;1.90;;
12585;SDS011;6358;50.760;0.282;2023-05-23T09:58:37;2.40;;;1.70;;
12585;SDS011;6358;50.760;0.282;2023-05-23T10:01:05;2.93;;;2.03;;
12585;SDS011;6358;50.760;0.282;2023-05-23T10:03:33;2.30;;;1.90;;
12585;SDS011;6358;50.760;0.282;2023-05-23T10:06:01;2.43;;;1.80;;
12585;SDS011;6358;50.760;0.282;2023-05-23T10:08:35;2.17;;;1.93;;
12585;SDS011;6358;50.760;0.282;2023-05-23T10:13:43;3.30;;;2.00;;
12585;SDS011;6358;50.760;0.282;2023-05-23T10:16:12;2.50;;;2.00;;
12585;SDS011;6358;50.760;0.282;2023-05-23T10:18:43;2.83;;;1.90;;
12585;SDS011;6358;50.760;0.282;2023-05-23T10:21:14;2.50;;;1.80;;
12585;SDS011;6358;50.760;0.282;2023-05-23T10:23:42;1.77;;;1.67;;
12585;SDS011;6358;50.760;0.282;2023-05-23T10:26:08;3.27;;;2.00;;
12585;SDS011;6358;50.760;0.282;2023-05-23T10:28:34;2.77;;;1.90;;
12585;SDS011;6358;50.760;0.282;2023-05-23T10:31:01;2.23;;;1.80;;
12585;SDS011;6358;50.760;0.282;2023-05-23T10:33:29;2.10;;;1.90;;
12585;SDS011;6358;50.760;0.282;2023-05-23T10:36:18;2.47;;;2.03;;
12585;SDS011;6358;50.760;0.282;2023-05-23T10:39:03;3.03;;;1.90;;
12585;SDS011;6358;50.760;0.282;2023-05-23T10:41:42;2.13;;;1.70;;
12585;SDS011;6358;50.760;0.282;2023-05-23T10:44:19;2.03;;;1.80;;
12585;SDS011;6358;50.760;0.282;2023-05-23T10:46:49;1.87;;;1.77;;
12585;SDS011;6358;50.760;0.282;2023-05-23T10:49:16;1.73;;;1.53;;
12585;SDS011;6358;50.760;0.282;2023-05-23T10:51:43;2.27;;;1.60;;
12585;SDS011;6358;50.760;0.282;2023-05-23T10:54:12;2.73;;;1.90;;
12585;SDS011;6358;50.760;0.282;2023-05-23T10:56:38;2.27;;;1.70;;
12585;SDS011;6358;50.760;0.282;2023-05-23T10:59:04;2.40;;;1.80;;
12585;SDS011;6358;50.760;0.282;2023-05-23T11:01:30;1.97;;;1.53;;
12585;SDS011;6358;50.760;0.282;2023-05-23T11:03:57;2.90;;;1.90;;
12585;SDS011;6358;50.760;0.282;2023-05-23T11:09:18;1.70;;;1.60;;
12585;SDS011;6358;50.760;0.282;2023-05-23T11:17:00;1.77;;;1.67;;
12585;SDS011;6358;50.760;0.282;2023-05-23T11:19:27;4.27;;;1.70;;
12585;SDS011;6358;50.760;0.282;2023-05-23T11:22:00;2.17;;;1.70;;
12585;SDS011;6358;50.760;0.282;2023-05-23T11:27:11;2.97;;;1.93;;
12585;SDS011;6358;50.760;0.282;2023-05-23T11:29:37;1.77;;;1.50;;
12585;SDS011;6358;50.760;0.282;2023-05-23T11:32:10;2.07;;;1.70;;
12585;SDS011;6358;50.760;0.282;2023-05-23T11:34:37;2.60;;;1.70;;
12585;SDS011;6358;50.760;0.282;2023-05-23T11:37:03;1.67;;;1.53;;
12585;SDS011;6358;50.760;0.282;2023-05-23T11:39:30;2.20;;;1.50;;
12585;SDS011;6358;50.760;0.282;2023-05-23T11:41:59;1.73;;;1.63;;
12585;SDS011;6358;50.760;0.282;2023-05-23T11:44:25;2.07;;;1.67;;
12585;SDS011;6358;50.760;0.282;2023-05-23T11:47:00;2.97;;;1.70;;
12585;SDS011;6358;50.760;0.282;2023-05-23T11:49:30;2.13;;;1.53;;
12585;SDS011;6358;50.760;0.282;2023-05-23T11:51:56;1.50;;;1.40;;
12585;SDS011;6358;50.760;0.282;2023-05-23T11:54:24;2.43;;;1.67;;
12585;SDS011;6358;50.760;0.282;2023-05-23T11:56:51;2.30;;;1.67;;
12585;SDS011;6358;50.760;0.282;2023-05-23T11:59:17;2.87;;;1.77;;
12585;SDS011;6358;50.760;0.282;2023-05-23T12:01:43;2.23;;;1.67;;
12585;SDS011;6358;50.760;0.282;2023-05-23T12:04:09;2.00;;;1.50;;
12585;SDS011;6358;50.760;0.282;2023-05-23T12:06:37;2.07;;;1.70;;
12585;SDS011;6358;50.760;0.282;2023-05-23T12:09:04;2.17;;;1.60;;
12585;SDS011;6358;50.760;0.282;2023-05-23T12:11:31;2.03;;;1.70;;
12585;SDS011;6358;50.760;0.282;2023-05-23T12:13:57;1.80;;;1.67;;
12585;SDS011;6358;50.760;0.282;2023-05-23T12:16:26;1.77;;;1.63;;
12585;SDS011;6358;50.760;0.282;2023-05-23T12:18:53;2.33;;;1.60;;
12585;SDS011;6358;50.760;0.282;2023-05-23T12:21:23;3.63;;;1.60;;
12585;SDS011;6358;50.760;0.282;2023-05-23T12:23:50;1.93;;;1.70;;
12585;SDS011;6358;50.760;0.282;2023-05-23T12:26:16;1.77;;;1.63;;
12585;SDS011;6358;50.760;0.282;2023-05-23T12:28:43;1.67;;;1.47;;
12585;SDS011;6358;50.760;0.282;2023-05-23T12:31:20;1.93;;;1.73;;
12585;SDS011;6358;50.760;0.282;2023-05-23T12:33:46;2.37;;;1.53;;
12585;SDS011;6358;50.760;0.282;2023-05-23T12:36:13;2.23;;;1.60;;
12585;SDS011;6358;50.760;0.282;2023-05-23T12:38:40;1.50;;;1.40;;
12585;SDS011;6358;50.760;0.282;2023-05-23T12:41:15;1.83;;;1.50;;
12585;SDS011;6358;50.760;0.282;2023-05-23T12:43:53;3.20;;;1.77;;
12585;SDS011;6358;50.760;0.282;2023-05-23T12:46:20;1.63;;;1.30;;
12585;SDS011;6358;50.760;0.282;2023-05-23T12:48:47;2.47;;;1.70;;
12585;SDS011;6358;50.760;0.282;2023-05-23T12:51:13;2.13;;;1.77;;
12585;SDS011;6358;50.760;0.282;2023-05-23T12:53:39;3.23;;;1.93;;
12585;SDS011;6358;50.760;0.282;2023-05-23T12:56:06;2.00;;;1.60;;
12585;SDS011;6358;50.760;0.282;2023-05-23T12:58:32;2.23;;;1.60;;
12585;SDS011;6358;50.760;0.282;2023-05-23T13:00:59;3.27;;;1.97;;
12585;SDS011;6358;50.760;0.282;2023-05-23T13:03:25;2.30;;;1.60;;
12585;SDS011;6358;50.760;0.282;2023-05-23T13:05:51;2.77;;;1.70;;
12585;SDS011;6358;50.760;0.282;2023-05-23T13:08:18;2.50;;;1.60;;
12585;SDS011;6358;50.760;0.282;2023-05-23T13:10:44;2.23;;;1.57;;
12585;SDS011;6358;50.760;0.282;2023-05-23T13:13:10;2.20;;;1.60;;
12585;SDS011;6358;50.760;0.282;2023-05-23T13:15:36;2.37;;;1.60;;
12585;SDS011;6358;50.760;0.282;2023-05-23T13:18:02;2.57;;;1.43;;
12585;SDS011;6358;50.760;0.282;2023-05-23T13:20:29;3.23;;;1.90;;
12585;SDS011;6358;50.760;0.282;2023-05-23T13:22:55;2.00;;;1.60;;
12585;SDS011;6358;50.760;0.282;2023-05-23T13:25:22;3.17;;;1.80;;
12585;SDS011;6358;50.760;0.282;2023-05-23T13:27:48;2.00;;;1.50;;
12585;SDS011;6358;50.760;0.282;2023-05-23T13:30:14;2.70;;;1.50;;
12585;SDS011;6358;50.760;0.282;2023-05-23T13:32:40;1.80;;;1.70;;
12585;SDS011;6358;50.760;0.282;2023-05-23T13:35:07;2.60;;;1.60;;
12585;SDS011;6358;50.760;0.282;2023-05-23T13:37:33;2.03;;;1.53;;
12585;SDS011;6358;50.760;0.282;2023-05-23T13:40:00;1.73;;;1.40;;
12585;SDS011;6358;50.760;0.282;2023-05-23T13:42:27;2.93;;;1.60;;
12585;SDS011;6358;50.760;0.282;2023-05-23T13:44:53;2.17;;;1.40;;
12585;SDS011;6358;50.760;0.282;2023-05-23T13:47:20;2.73;;;1.60;;
12585;SDS011;6358;50.760;0.282;2023-05-23T13:49:46;2.67;;;1.53;;
12585;SDS011;6358;50.760;0.282;2023-05-23T13:52:12;2.47;;;1.80;;
12585;SDS011;6358;50.760;0.282;2023-05-23T13:54:39;2.00;;;1.80;;
12585;SDS011;6358;50.760;0.282;2023-05-23T13:57:05;2.33;;;1.53;;
12585;SDS011;6358;50.760;0.282;2023-05-23T13:59:33;1.50;;;1.40;;
12585;SDS011;6358;50.760;0.282;2023-05-23T14:01:59;3.37;;;2.10;;
12585;SDS011;6358;50.760;0.282;2023-05-23T14:04:25;2.77;;;1.73;;
12585;SDS011;6358;50.760;0.282;2023-05-23T14:06:51;2.30;;;1.63;;
12585;SDS011;6358;50.760;0.282;2023-05-23T14:09:18;3.37;;;1.80;;
12585;SDS011;6358;50.760;0.282;2023-05-23T14:11:44;3.57;;;1.90;;
12585;SDS011;6358;50.760;0.282;2023-05-23T14:14:11;2.93;;;1.60;;
12585;SDS011;6358;50.760;0.282;2023-05-23T14:16:38;4.80;;;2.10;;
12585;SDS011;6358;50.760;0.282;2023-05-23T14:19:04;3.30;;;1.90;;
12585;SDS011;6358;50.760;0.282;2023-05-23T14:21:30;3.60;;;1.83;;
12585;SDS011;6358;50.760;0.282;2023-05-23T14:23:56;4.10;;;1.93;;
12585;SDS011;6358;50.760;0.282;2023-05-23T14:26:22;3.27;;;1.70;;
12585;SDS011;6358;50.760;0.282;2023-05-23T14:28:48;4.33;;;1.97;;
12585;SDS011;6358;50.760;0.282;2023-05-23T14:31:14;5.47;;;2.20;;
12585;SDS011;6358;50.760;0.282;2023-05-23T14:33:40;3.57;;;2.00;;
12585;SDS011;6358;50.760;0.282;2023-05-23T14:36:06;4.13;;;1.90;;
12585;SDS011;6358;50.760;0.282;2023-05-23T14:38:33;3.00;;;1.87;;
12585;SDS011;6358;50.760;0.282;2023-05-23T14:40:59;4.60;;;2.20;;
12585;SDS011;6358;50.760;0.282;2023-05-23T14:43:25;5.63;;;2.00;;
12585;SDS011;6358;50.760;0.282;2023-05-23T14:45:51;5.10;;;2.00;;
12585;SDS011;6358;50.760;0.282;2023-05-23T14:48:17;3.77;;;2.00;;
12585;SDS011;6358;50.760;0.282;2023-05-23T14:50:43;4.47;;;2.10;;
12585;SDS011;6358;50.760;0.282;2023-05-23T14:53:09;5.50;;;2.33;;
12585;SDS011;6358;50.760;0.282;2023-05-23T14:55:35;4.57;;;2.30;;
12585;SDS011;6358;50.760;0.282;2023-05-23T14:58:01;5.77;;;2.17;;
12585;SDS011;6358;50.760;0.282;2023-05-23T15:00:28;3.33;;;1.97;;
12585;SDS011;6358;50.760;0.282;2023-05-23T15:02:54;5.23;;;2.30;;
12585;SDS011;6358;50.760;0.282;2023-05-23T15:05:20;4.50;;;2.23;;
12585;SDS011;6358;50.760;0.282;2023-05-23T15:07:46;3.80;;;1.83;;
12585;SDS011;6358;50.760;0.282;2023-05-23T15:10:12;3.70;;;1.90;;
12585;SDS011;6358;50.760;0.282;2023-05-23T15:12:39;4.23;;;2.03;;
12585;SDS011;6358;50.760;0.282;2023-05-23T15:15:05;3.70;;;2.20;;
12585;SDS011;6358;50.760;0.282;2023-05-23T15:17:32;4.40;;;2.13;;
12585;SDS011;6358;50.760;0.282;2023-05-23T15:19:58;4.07;;;2.03;;